sensor_id;sensor_type;location;lat;lon;timestamp;P1;durP1;ratioP1;P2;durP2;ratioP2
7575;SDS011;3829;50.798;4.358;2023-08-12T00:01:30;8.17;;;4.20;;
7575;SDS011;3829;50.798;4.358;2023-08-12T00:03:56;14.87;;;4.97;;
7575;SDS011;3829;50.798;4.358;2023-08-12T00:06:22;7.70;;;4.17;;
7575;SDS011;3829;50.798;4.358;2023-08-12T00:08:48;9.27;;;4.23;;
7575;SDS011;3829;50.798;4.358;2023-08-12T00:11:14;8.57;;;3.93;;
7575;SDS011;3829;50.798;4.358;2023-08-12T00:13:39;8.70;;;4.53;;
7575;SDS011;3829;50.798;4.358;2023-08-12T00:16:05;7.77;;;4.53;;
7575;SDS011;3829;50.798;4.358;2023-08-12T00:18:31;8.33;;;4.67;;
7575;SDS011;3829;50.798;4.358;2023-08-12T00:21:06;10.57;;;4.17;;
7575;SDS011;3829;50.798;4.358;2023-08-12T00:23:36;9.47;;;4.87;;
7575;SDS011;3829;50.798;4.358;2023-08-12T00:26:03;11.10;;;4.77;;
7575;SDS011;3829;50.798;4.358;2023-08-12T00:28:29;13.37;;;4.60;;
7575;SDS011;3829;50.798;4.358;2023-08-12T00:30:54;11.03;;;4.93;;
7575;SDS011;3829;50.798;4.358;2023-08-12T00:33:20;11.90;;;5.20;;
7575;SDS011;3829;50.798;4.358;2023-08-12T00:35:45;14.90;;;5.23;;
7575;SDS011;3829;50.798;4.358;2023-08-12T00:38:11;11.17;;;5.20;;
7575;SDS011;3829;50.798;4.358;2023-08-12T00:40:36;12.37;;;5.30;;
7575;SDS011;3829;50.798;4.358;2023-08-12T00:43:02;11.33;;;5.43;;
7575;SDS011;3829;50.798;4.358;2023-08-12T00:45:28;12.63;;;5.50;;
7575;SDS011;3829;50.798;4.358;2023-08-12T00:47:54;13.33;;;5.37;;
7575;SDS011;3829;50.798;4.358;2023-08-12T00:50:20;9.07;;;4.93;;
7575;SDS011;3829;50.798;4.358;2023-08-12T00:52:47;13.23;;;5.30;;
7575;SDS011;3829;50.798;4.358;2023-08-12T00:55:14;9.30;;;4.90;;
7575;SDS011;3829;50.798;4.358;2023-08-12T00:57:40;10.83;;;4.97;;
7575;SDS011;3829;50.798;4.358;2023-08-12T01:00:06;11.30;;;5.10;;
7575;SDS011;3829;50.798;4.358;2023-08-12T01:02:33;10.90;;;5.60;;
7575;SDS011;3829;50.798;4.358;2023-08-12T01:04:58;10.73;;;5.60;;
7575;SDS011;3829;50.798;4.358;2023-08-12T01:07:24;9.77;;;5.20;;
7575;SDS011;3829;50.798;4.358;2023-08-12T01:09:50;11.07;;;5.77;;
7575;SDS011;3829;50.798;4.358;2023-08-12T01:12:17;8.43;;;5.57;;
7575;SDS011;3829;50.798;4.358;2023-08-12T01:14:51;11.57;;;5.40;;
7575;SDS011;3829;50.798;4.358;2023-08-12T01:17:23;10.23;;;5.73;;
7575;SDS011;3829;50.798;4.358;2023-08-12T01:19:50;9.67;;;5.17;;
7575;SDS011;3829;50.798;4.358;2023-08-12T01:22:17;12.97;;;6.07;;
7575;SDS011;3829;50.798;4.358;2023-08-12T01:24:47;9.13;;;5.23;;
7575;SDS011;3829;50.798;4.358;2023-08-12T01:27:13;9.50;;;5.37;;
7575;SDS011;3829;50.798;4.358;2023-08-12T01:29:41;11.57;;;5.50;;
7575;SDS011;3829;50.798;4.358;2023-08-12T01:32:11;13.53;;;5.80;;
7575;SDS011;3829;50.798;4.358;2023-08-12T01:34:48;10.67;;;5.30;;
7575;SDS011;3829;50.798;4.358;2023-08-12T01:37:23;17.27;;;6.17;;
7575;SDS011;3829;50.798;4.358;2023-08-12T01:39:52;10.23;;;6.00;;
7575;SDS011;3829;50.798;4.358;2023-08-12T01:42:18;12.47;;;6.40;;
7575;SDS011;3829;50.798;4.358;2023-08-12T01:44:45;8.87;;;6.17;;
7575;SDS011;3829;50.798;4.358;2023-08-12T01:47:11;18.03;;;7.03;;
7575;SDS011;3829;50.798;4.358;2023-08-12T01:49:38;16.10;;;6.47;;
7575;SDS011;3829;50.798;4.358;2023-08-12T01:52:04;18.17;;;7.00;;
7575;SDS011;3829;50.798;4.358;2023-08-12T01:54:30;16.43;;;6.73;;
7575;SDS011;3829;50.798;4.358;2023-08-12T01:57:00;13.07;;;6.63;;
7575;SDS011;3829;50.798;4.358;2023-08-12T01:59:27;14.10;;;6.70;;
7575;SDS011;3829;50.798;4.358;2023-08-12T02:01:53;13.83;;;6.20;;
7575;SDS011;3829;50.798;4.358;2023-08-12T02:04:18;9.37;;;5.80;;
7575;SDS011;3829;50.798;4.358;2023-08-12T02:06:44;13.03;;;6.80;;
7575;SDS011;3829;50.798;4.358;2023-08-12T02:09:09;14.20;;;6.37;;
7575;SDS011;3829;50.798;4.358;2023-08-12T02:11:35;11.20;;;6.40;;
7575;SDS011;3829;50.798;4.358;2023-08-12T02:14:01;10.17;;;5.60;;
7575;SDS011;3829;50.798;4.358;2023-08-12T02:16:26;15.50;;;6.50;;
7575;SDS011;3829;50.798;4.358;2023-08-12T02:18:52;10.67;;;6.27;;
7575;SDS011;3829;50.798;4.358;2023-08-12T02:21:17;11.93;;;6.53;;
7575;SDS011;3829;50.798;4.358;2023-08-12T02:23:43;14.27;;;6.57;;
7575;SDS011;3829;50.798;4.358;2023-08-12T02:26:09;14.70;;;7.50;;
7575;SDS011;3829;50.798;4.358;2023-08-12T02:28:34;11.23;;;6.33;;
7575;SDS011;3829;50.798;4.358;2023-08-12T02:31:01;15.90;;;6.67;;
7575;SDS011;3829;50.798;4.358;2023-08-12T02:33:26;12.20;;;7.63;;
7575;SDS011;3829;50.798;4.358;2023-08-12T02:35:53;11.77;;;7.47;;
7575;SDS011;3829;50.798;4.358;2023-08-12T02:38:19;13.87;;;7.23;;
7575;SDS011;3829;50.798;4.358;2023-08-12T02:40:49;13.73;;;6.73;;
7575;SDS011;3829;50.798;4.358;2023-08-12T02:43:15;13.53;;;7.23;;
7575;SDS011;3829;50.798;4.358;2023-08-12T02:45:41;14.07;;;7.63;;
7575;SDS011;3829;50.798;4.358;2023-08-12T02:48:06;11.33;;;7.27;;
7575;SDS011;3829;50.798;4.358;2023-08-12T02:50:32;13.60;;;6.73;;
7575;SDS011;3829;50.798;4.358;2023-08-12T02:52:58;18.50;;;7.37;;
7575;SDS011;3829;50.798;4.358;2023-08-12T02:55:24;14.50;;;7.27;;
7575;SDS011;3829;50.798;4.358;2023-08-12T02:57:49;15.07;;;7.53;;
7575;SDS011;3829;50.798;4.358;2023-08-12T03:00:15;12.93;;;7.20;;
7575;SDS011;3829;50.798;4.358;2023-08-12T03:02:42;14.27;;;7.77;;
7575;SDS011;3829;50.798;4.358;2023-08-12T03:05:08;16.90;;;8.00;;
7575;SDS011;3829;50.798;4.358;2023-08-12T03:07:34;15.50;;;6.83;;
7575;SDS011;3829;50.798;4.358;2023-08-12T03:09:59;16.93;;;7.83;;
7575;SDS011;3829;50.798;4.358;2023-08-12T03:12:25;15.17;;;7.23;;
7575;SDS011;3829;50.798;4.358;2023-08-12T03:14:50;13.63;;;7.87;;
7575;SDS011;3829;50.798;4.358;2023-08-12T03:17:16;16.10;;;8.23;;
7575;SDS011;3829;50.798;4.358;2023-08-12T03:19:42;14.73;;;7.37;;
7575;SDS011;3829;50.798;4.358;2023-08-12T03:22:07;13.00;;;7.93;;
7575;SDS011;3829;50.798;4.358;2023-08-12T03:24:33;19.73;;;7.63;;
7575;SDS011;3829;50.798;4.358;2023-08-12T03:26:59;11.20;;;7.60;;
7575;SDS011;3829;50.798;4.358;2023-08-12T03:29:24;13.57;;;7.20;;
7575;SDS011;3829;50.798;4.358;2023-08-12T03:31:50;13.67;;;6.93;;
7575;SDS011;3829;50.798;4.358;2023-08-12T03:34:16;15.40;;;7.70;;
7575;SDS011;3829;50.798;4.358;2023-08-12T03:36:42;10.60;;;7.23;;
7575;SDS011;3829;50.798;4.358;2023-08-12T03:39:07;11.40;;;7.57;;
7575;SDS011;3829;50.798;4.358;2023-08-12T03:41:33;11.43;;;7.47;;
7575;SDS011;3829;50.798;4.358;2023-08-12T03:43:59;11.07;;;7.53;;
7575;SDS011;3829;50.798;4.358;2023-08-12T03:46:24;10.57;;;6.50;;
7575;SDS011;3829;50.798;4.358;2023-08-12T03:48:50;9.10;;;6.47;;
7575;SDS011;3829;50.798;4.358;2023-08-12T03:51:15;11.33;;;6.70;;
7575;SDS011;3829;50.798;4.358;2023-08-12T03:53:41;11.93;;;6.53;;
7575;SDS011;3829;50.798;4.358;2023-08-12T03:56:07;8.93;;;6.23;;
7575;SDS011;3829;50.798;4.358;2023-08-12T03:58:32;8.80;;;5.90;;
7575;SDS011;3829;50.798;4.358;2023-08-12T04:00:58;7.93;;;6.10;;
7575;SDS011;3829;50.798;4.358;2023-08-12T04:03:24;7.60;;;6.20;;
7575;SDS011;3829;50.798;4.358;2023-08-12T04:05:50;8.27;;;5.33;;
7575;SDS011;3829;50.798;4.358;2023-08-12T04:08:18;7.03;;;5.30;;
7575;SDS011;3829;50.798;4.358;2023-08-12T04:10:45;6.93;;;5.73;;
7575;SDS011;3829;50.798;4.358;2023-08-12T04:13:12;8.67;;;5.33;;
7575;SDS011;3829;50.798;4.358;2023-08-12T04:15:39;10.50;;;6.20;;
7575;SDS011;3829;50.798;4.358;2023-08-12T04:18:04;8.20;;;6.07;;
7575;SDS011;3829;50.798;4.358;2023-08-12T04:20:30;5.30;;;4.80;;
7575;SDS011;3829;50.798;4.358;2023-08-12T04:22:56;6.40;;;4.93;;
7575;SDS011;3829;50.798;4.358;2023-08-12T04:25:22;7.10;;;4.90;;
7575;SDS011;3829;50.798;4.358;2023-08-12T04:27:48;7.50;;;4.77;;
7575;SDS011;3829;50.798;4.358;2023-08-12T04:30:14;4.63;;;4.13;;
7575;SDS011;3829;50.798;4.358;2023-08-12T04:32:41;7.50;;;4.60;;
7575;SDS011;3829;50.798;4.358;2023-08-12T04:35:07;4.53;;;4.13;;
7575;SDS011;3829;50.798;4.358;2023-08-12T04:37:33;4.17;;;3.80;;
7575;SDS011;3829;50.798;4.358;2023-08-12T04:39:58;5.33;;;4.07;;
7575;SDS011;3829;50.798;4.358;2023-08-12T04:42:24;4.33;;;3.83;;
7575;SDS011;3829;50.798;4.358;2023-08-12T04:44:50;6.17;;;3.70;;
7575;SDS011;3829;50.798;4.358;2023-08-12T04:47:15;4.80;;;3.83;;
7575;SDS011;3829;50.798;4.358;2023-08-12T04:49:41;4.13;;;3.73;;
7575;SDS011;3829;50.798;4.358;2023-08-12T04:52:06;5.13;;;3.73;;
7575;SDS011;3829;50.798;4.358;2023-08-12T04:54:32;5.30;;;4.17;;
7575;SDS011;3829;50.798;4.358;2023-08-12T04:56:58;4.80;;;3.63;;
7575;SDS011;3829;50.798;4.358;2023-08-12T04:59:24;5.00;;;4.23;;
7575;SDS011;3829;50.798;4.358;2023-08-12T05:01:50;5.00;;;4.33;;
7575;SDS011;3829;50.798;4.358;2023-08-12T05:04:15;7.83;;;4.90;;
7575;SDS011;3829;50.798;4.358;2023-08-12T05:06:41;9.80;;;5.07;;
7575;SDS011;3829;50.798;4.358;2023-08-12T05:09:07;7.90;;;6.03;;
7575;SDS011;3829;50.798;4.358;2023-08-12T05:11:33;7.77;;;5.87;;
7575;SDS011;3829;50.798;4.358;2023-08-12T05:13:59;8.30;;;6.70;;
7575;SDS011;3829;50.798;4.358;2023-08-12T05:16:24;9.60;;;7.47;;
7575;SDS011;3829;50.798;4.358;2023-08-12T05:18:50;9.27;;;7.50;;
7575;SDS011;3829;50.798;4.358;2023-08-12T05:21:16;11.27;;;7.13;;
7575;SDS011;3829;50.798;4.358;2023-08-12T05:23:41;8.17;;;7.03;;
7575;SDS011;3829;50.798;4.358;2023-08-12T05:26:07;9.57;;;6.93;;
7575;SDS011;3829;50.798;4.358;2023-08-12T05:28:33;10.63;;;7.47;;
7575;SDS011;3829;50.798;4.358;2023-08-12T05:30:58;10.57;;;6.87;;
7575;SDS011;3829;50.798;4.358;2023-08-12T05:33:24;10.47;;;7.27;;
7575;SDS011;3829;50.798;4.358;2023-08-12T05:35:49;10.17;;;7.53;;
7575;SDS011;3829;50.798;4.358;2023-08-12T05:38:15;9.17;;;7.00;;
7575;SDS011;3829;50.798;4.358;2023-08-12T05:40:41;9.23;;;7.23;;
7575;SDS011;3829;50.798;4.358;2023-08-12T05:43:07;8.70;;;6.83;;
7575;SDS011;3829;50.798;4.358;2023-08-12T05:45:32;8.67;;;7.07;;
7575;SDS011;3829;50.798;4.358;2023-08-12T05:47:58;8.83;;;7.00;;
7575;SDS011;3829;50.798;4.358;2023-08-12T05:50:23;8.97;;;7.77;;
7575;SDS011;3829;50.798;4.358;2023-08-12T05:52:49;8.97;;;7.03;;
7575;SDS011;3829;50.798;4.358;2023-08-12T05:55:14;9.63;;;7.43;;
7575;SDS011;3829;50.798;4.358;2023-08-12T05:57:40;11.17;;;8.00;;
7575;SDS011;3829;50.798;4.358;2023-08-12T06:00:06;12.07;;;7.90;;
7575;SDS011;3829;50.798;4.358;2023-08-12T06:02:32;10.27;;;8.63;;
7575;SDS011;3829;50.798;4.358;2023-08-12T06:04:57;9.47;;;8.43;;
7575;SDS011;3829;50.798;4.358;2023-08-12T06:07:23;12.93;;;9.17;;
7575;SDS011;3829;50.798;4.358;2023-08-12T06:09:49;10.73;;;8.93;;
7575;SDS011;3829;50.798;4.358;2023-08-12T06:12:15;12.43;;;8.67;;
7575;SDS011;3829;50.798;4.358;2023-08-12T06:14:41;14.03;;;9.60;;
7575;SDS011;3829;50.798;4.358;2023-08-12T06:17:07;10.67;;;8.93;;
7575;SDS011;3829;50.798;4.358;2023-08-12T06:19:32;12.47;;;7.93;;
7575;SDS011;3829;50.798;4.358;2023-08-12T06:21:58;9.93;;;8.23;;
7575;SDS011;3829;50.798;4.358;2023-08-12T06:24:24;9.60;;;8.30;;
7575;SDS011;3829;50.798;4.358;2023-08-12T06:26:49;11.90;;;8.87;;
7575;SDS011;3829;50.798;4.358;2023-08-12T06:29:15;13.47;;;8.53;;
7575;SDS011;3829;50.798;4.358;2023-08-12T06:31:41;9.70;;;8.27;;
7575;SDS011;3829;50.798;4.358;2023-08-12T06:34:06;10.57;;;8.40;;
7575;SDS011;3829;50.798;4.358;2023-08-12T06:36:32;9.43;;;7.43;;
7575;SDS011;3829;50.798;4.358;2023-08-12T06:38:58;10.27;;;7.23;;
7575;SDS011;3829;50.798;4.358;2023-08-12T06:41:23;8.73;;;7.10;;
7575;SDS011;3829;50.798;4.358;2023-08-12T06:43:49;7.73;;;6.30;;
7575;SDS011;3829;50.798;4.358;2023-08-12T06:46:14;8.00;;;6.40;;
7575;SDS011;3829;50.798;4.358;2023-08-12T06:48:40;8.47;;;5.93;;
7575;SDS011;3829;50.798;4.358;2023-08-12T06:51:06;7.67;;;6.50;;
7575;SDS011;3829;50.798;4.358;2023-08-12T06:53:35;7.43;;;6.47;;
7575;SDS011;3829;50.798;4.358;2023-08-12T06:56:02;10.87;;;5.93;;
7575;SDS011;3829;50.798;4.358;2023-08-12T06:58:28;10.13;;;6.03;;
7575;SDS011;3829;50.798;4.358;2023-08-12T07:00:53;6.80;;;5.47;;
7575;SDS011;3829;50.798;4.358;2023-08-12T07:03:19;7.70;;;5.37;;
7575;SDS011;3829;50.798;4.358;2023-08-12T07:05:44;7.07;;;5.63;;
7575;SDS011;3829;50.798;4.358;2023-08-12T07:08:10;6.30;;;4.63;;
7575;SDS011;3829;50.798;4.358;2023-08-12T07:10:38;6.13;;;3.93;;
7575;SDS011;3829;50.798;4.358;2023-08-12T07:13:04;3.33;;;3.03;;
7575;SDS011;3829;50.798;4.358;2023-08-12T07:15:29;5.50;;;3.00;;
7575;SDS011;3829;50.798;4.358;2023-08-12T07:17:55;3.30;;;3.00;;
7575;SDS011;3829;50.798;4.358;2023-08-12T07:20:20;5.30;;;3.53;;
7575;SDS011;3829;50.798;4.358;2023-08-12T07:22:46;3.70;;;3.30;;
7575;SDS011;3829;50.798;4.358;2023-08-12T07:25:11;3.87;;;2.80;;
7575;SDS011;3829;50.798;4.358;2023-08-12T07:27:37;4.30;;;3.03;;
7575;SDS011;3829;50.798;4.358;2023-08-12T07:30:03;3.60;;;2.97;;
7575;SDS011;3829;50.798;4.358;2023-08-12T07:32:29;3.93;;;2.83;;
7575;SDS011;3829;50.798;4.358;2023-08-12T07:34:54;4.90;;;2.83;;
7575;SDS011;3829;50.798;4.358;2023-08-12T07:37:20;4.23;;;3.13;;
7575;SDS011;3829;50.798;4.358;2023-08-12T07:39:45;4.80;;;3.23;;
7575;SDS011;3829;50.798;4.358;2023-08-12T07:42:11;4.50;;;3.90;;
7575;SDS011;3829;50.798;4.358;2023-08-12T07:44:37;7.80;;;4.43;;
7575;SDS011;3829;50.798;4.358;2023-08-12T07:47:02;6.60;;;4.30;;
7575;SDS011;3829;50.798;4.358;2023-08-12T07:49:28;7.43;;;5.57;;
7575;SDS011;3829;50.798;4.358;2023-08-12T07:51:53;7.47;;;5.60;;
7575;SDS011;3829;50.798;4.358;2023-08-12T07:54:19;7.53;;;5.80;;
7575;SDS011;3829;50.798;4.358;2023-08-12T07:56:44;7.67;;;5.67;;
7575;SDS011;3829;50.798;4.358;2023-08-12T07:59:10;7.50;;;6.57;;
7575;SDS011;3829;50.798;4.358;2023-08-12T08:01:36;8.70;;;7.00;;
7575;SDS011;3829;50.798;4.358;2023-08-12T08:04:01;7.30;;;6.30;;
7575;SDS011;3829;50.798;4.358;2023-08-12T08:06:27;7.43;;;6.40;;
7575;SDS011;3829;50.798;4.358;2023-08-12T08:08:53;9.17;;;6.17;;
7575;SDS011;3829;50.798;4.358;2023-08-12T08:11:20;6.20;;;5.60;;
7575;SDS011;3829;50.798;4.358;2023-08-12T08:13:46;5.30;;;4.67;;
7575;SDS011;3829;50.798;4.358;2023-08-12T08:16:11;4.70;;;4.23;;
7575;SDS011;3829;50.798;4.358;2023-08-12T08:18:37;4.50;;;3.97;;
7575;SDS011;3829;50.798;4.358;2023-08-12T08:21:03;6.90;;;2.57;;
7575;SDS011;3829;50.798;4.358;2023-08-12T08:23:28;3.67;;;3.07;;
7575;SDS011;3829;50.798;4.358;2023-08-12T08:25:54;4.37;;;2.70;;
7575;SDS011;3829;50.798;4.358;2023-08-12T08:28:19;2.63;;;2.40;;
7575;SDS011;3829;50.798;4.358;2023-08-12T08:30:45;5.07;;;2.67;;
7575;SDS011;3829;50.798;4.358;2023-08-12T08:33:11;2.90;;;2.60;;
7575;SDS011;3829;50.798;4.358;2023-08-12T08:35:36;3.20;;;2.43;;
7575;SDS011;3829;50.798;4.358;2023-08-12T08:38:02;3.23;;;2.57;;
7575;SDS011;3829;50.798;4.358;2023-08-12T08:40:27;3.50;;;2.33;;
7575;SDS011;3829;50.798;4.358;2023-08-12T08:42:53;3.37;;;2.17;;
7575;SDS011;3829;50.798;4.358;2023-08-12T08:45:19;2.77;;;2.00;;
7575;SDS011;3829;50.798;4.358;2023-08-12T08:47:47;4.33;;;1.90;;
7575;SDS011;3829;50.798;4.358;2023-08-12T08:50:14;5.73;;;1.63;;
7575;SDS011;3829;50.798;4.358;2023-08-12T08:52:40;1.53;;;1.43;;
7575;SDS011;3829;50.798;4.358;2023-08-12T08:55:08;1.90;;;1.33;;
7575;SDS011;3829;50.798;4.358;2023-08-12T08:57:34;3.10;;;1.33;;
7575;SDS011;3829;50.798;4.358;2023-08-12T09:00:00;2.57;;;1.63;;
7575;SDS011;3829;50.798;4.358;2023-08-12T09:02:25;2.47;;;1.00;;
7575;SDS011;3829;50.798;4.358;2023-08-12T09:04:51;1.40;;;1.30;;
7575;SDS011;3829;50.798;4.358;2023-08-12T09:07:18;3.63;;;1.50;;
7575;SDS011;3829;50.798;4.358;2023-08-12T09:09:45;2.13;;;1.30;;
7575;SDS011;3829;50.798;4.358;2023-08-12T09:12:13;1.47;;;1.20;;
7575;SDS011;3829;50.798;4.358;2023-08-12T09:14:40;6.50;;;1.40;;
7575;SDS011;3829;50.798;4.358;2023-08-12T09:17:06;2.73;;;1.20;;
7575;SDS011;3829;50.798;4.358;2023-08-12T09:19:32;2.23;;;1.50;;
7575;SDS011;3829;50.798;4.358;2023-08-12T09:21:58;1.60;;;1.10;;
7575;SDS011;3829;50.798;4.358;2023-08-12T09:24:25;2.37;;;1.13;;
7575;SDS011;3829;50.798;4.358;2023-08-12T09:26:51;4.40;;;2.23;;
7575;SDS011;3829;50.798;4.358;2023-08-12T09:29:17;4.03;;;1.37;;
7575;SDS011;3829;50.798;4.358;2023-08-12T09:31:43;3.67;;;2.13;;
7575;SDS011;3829;50.798;4.358;2023-08-12T09:34:08;3.47;;;1.60;;
7575;SDS011;3829;50.798;4.358;2023-08-12T09:36:34;3.97;;;1.40;;
7575;SDS011;3829;50.798;4.358;2023-08-12T09:39:00;3.77;;;1.57;;
7575;SDS011;3829;50.798;4.358;2023-08-12T09:41:31;1.93;;;1.30;;
7575;SDS011;3829;50.798;4.358;2023-08-12T09:43:58;3.87;;;1.30;;
7575;SDS011;3829;50.798;4.358;2023-08-12T09:46:23;4.07;;;1.57;;
7575;SDS011;3829;50.798;4.358;2023-08-12T09:48:50;3.60;;;1.37;;
7575;SDS011;3829;50.798;4.358;2023-08-12T09:51:16;3.57;;;1.60;;
7575;SDS011;3829;50.798;4.358;2023-08-12T09:53:42;3.67;;;1.60;;
7575;SDS011;3829;50.798;4.358;2023-08-12T09:56:08;2.17;;;1.27;;
7575;SDS011;3829;50.798;4.358;2023-08-12T09:58:36;5.23;;;1.70;;
7575;SDS011;3829;50.798;4.358;2023-08-12T10:01:03;5.77;;;1.90;;
7575;SDS011;3829;50.798;4.358;2023-08-12T10:03:31;5.33;;;1.70;;
7575;SDS011;3829;50.798;4.358;2023-08-12T10:05:58;3.73;;;1.53;;
7575;SDS011;3829;50.798;4.358;2023-08-12T10:08:25;3.40;;;1.63;;
7575;SDS011;3829;50.798;4.358;2023-08-12T10:10:52;4.60;;;1.73;;
7575;SDS011;3829;50.798;4.358;2023-08-12T10:13:18;1.40;;;1.30;;
7575;SDS011;3829;50.798;4.358;2023-08-12T10:15:45;3.87;;;1.60;;
7575;SDS011;3829;50.798;4.358;2023-08-12T10:18:11;3.00;;;1.60;;
7575;SDS011;3829;50.798;4.358;2023-08-12T10:20:38;2.50;;;1.70;;
7575;SDS011;3829;50.798;4.358;2023-08-12T10:23:04;4.77;;;2.10;;
7575;SDS011;3829;50.798;4.358;2023-08-12T10:25:32;7.23;;;1.87;;
7575;SDS011;3829;50.798;4.358;2023-08-12T10:28:00;3.87;;;1.70;;
7575;SDS011;3829;50.798;4.358;2023-08-12T10:30:29;4.60;;;1.90;;
7575;SDS011;3829;50.798;4.358;2023-08-12T10:32:55;6.43;;;1.80;;
7575;SDS011;3829;50.798;4.358;2023-08-12T10:35:21;5.43;;;1.90;;
7575;SDS011;3829;50.798;4.358;2023-08-12T10:37:48;3.53;;;1.37;;
7575;SDS011;3829;50.798;4.358;2023-08-12T10:40:22;3.97;;;1.33;;
7575;SDS011;3829;50.798;4.358;2023-08-12T10:42:48;5.40;;;1.80;;
7575;SDS011;3829;50.798;4.358;2023-08-12T10:45:15;3.13;;;1.60;;
7575;SDS011;3829;50.798;4.358;2023-08-12T10:47:43;3.73;;;1.47;;
7575;SDS011;3829;50.798;4.358;2023-08-12T10:50:21;3.87;;;1.50;;
7575;SDS011;3829;50.798;4.358;2023-08-12T10:52:51;2.83;;;1.33;;
7575;SDS011;3829;50.798;4.358;2023-08-12T10:55:19;2.53;;;1.20;;
7575;SDS011;3829;50.798;4.358;2023-08-12T10:57:47;4.17;;;1.50;;
7575;SDS011;3829;50.798;4.358;2023-08-12T11:00:17;3.07;;;1.50;;
7575;SDS011;3829;50.798;4.358;2023-08-12T11:02:49;8.53;;;1.60;;
7575;SDS011;3829;50.798;4.358;2023-08-12T11:05:16;4.67;;;1.87;;
7575;SDS011;3829;50.798;4.358;2023-08-12T11:10:22;5.30;;;1.57;;
7575;SDS011;3829;50.798;4.358;2023-08-12T11:12:55;6.20;;;1.90;;
7575;SDS011;3829;50.798;4.358;2023-08-12T11:18:02;6.40;;;1.40;;
7575;SDS011;3829;50.798;4.358;2023-08-12T11:20:29;4.10;;;1.47;;
7575;SDS011;3829;50.798;4.358;2023-08-12T11:22:55;4.57;;;1.73;;
7575;SDS011;3829;50.798;4.358;2023-08-12T11:25:23;6.03;;;1.80;;
7575;SDS011;3829;50.798;4.358;2023-08-12T11:27:49;4.53;;;1.43;;
7575;SDS011;3829;50.798;4.358;2023-08-12T11:30:16;4.50;;;1.33;;
7575;SDS011;3829;50.798;4.358;2023-08-12T11:32:43;2.33;;;1.43;;
7575;SDS011;3829;50.798;4.358;2023-08-12T11:35:10;3.90;;;1.43;;
7575;SDS011;3829;50.798;4.358;2023-08-12T11:37:38;6.20;;;1.70;;
7575;SDS011;3829;50.798;4.358;2023-08-12T11:40:04;10.60;;;1.53;;
7575;SDS011;3829;50.798;4.358;2023-08-12T11:42:33;4.43;;;1.43;;
7575;SDS011;3829;50.798;4.358;2023-08-12T11:44:59;3.30;;;1.17;;
7575;SDS011;3829;50.798;4.358;2023-08-12T11:47:25;3.83;;;1.50;;
7575;SDS011;3829;50.798;4.358;2023-08-12T11:49:52;5.17;;;1.80;;
7575;SDS011;3829;50.798;4.358;2023-08-12T11:52:18;6.57;;;1.90;;
7575;SDS011;3829;50.798;4.358;2023-08-12T11:54:44;5.43;;;1.90;;
7575;SDS011;3829;50.798;4.358;2023-08-12T11:57:10;5.33;;;2.00;;
7575;SDS011;3829;50.798;4.358;2023-08-12T11:59:36;3.57;;;1.90;;
7575;SDS011;3829;50.798;4.358;2023-08-12T12:02:02;4.40;;;1.60;;
7575;SDS011;3829;50.798;4.358;2023-08-12T12:04:30;4.40;;;2.17;;
7575;SDS011;3829;50.798;4.358;2023-08-12T12:06:56;3.40;;;2.20;;
7575;SDS011;3829;50.798;4.358;2023-08-12T12:09:22;7.37;;;2.03;;
7575;SDS011;3829;50.798;4.358;2023-08-12T12:11:51;4.27;;;2.13;;
7575;SDS011;3829;50.798;4.358;2023-08-12T12:14:18;4.33;;;2.53;;
7575;SDS011;3829;50.798;4.358;2023-08-12T12:16:46;5.60;;;2.47;;
7575;SDS011;3829;50.798;4.358;2023-08-12T12:19:17;4.87;;;2.63;;
7575;SDS011;3829;50.798;4.358;2023-08-12T12:21:45;8.20;;;2.80;;
7575;SDS011;3829;50.798;4.358;2023-08-12T12:24:14;5.73;;;2.43;;
7575;SDS011;3829;50.798;4.358;2023-08-12T12:26:40;6.17;;;2.77;;
7575;SDS011;3829;50.798;4.358;2023-08-12T12:29:06;4.33;;;2.13;;
7575;SDS011;3829;50.798;4.358;2023-08-12T12:31:33;2.80;;;2.10;;
7575;SDS011;3829;50.798;4.358;2023-08-12T12:34:00;5.03;;;2.07;;
7575;SDS011;3829;50.798;4.358;2023-08-12T12:36:26;5.50;;;2.70;;
7575;SDS011;3829;50.798;4.358;2023-08-12T12:38:52;5.00;;;2.10;;
7575;SDS011;3829;50.798;4.358;2023-08-12T12:41:18;6.90;;;2.40;;
7575;SDS011;3829;50.798;4.358;2023-08-12T12:43:43;3.57;;;2.40;;
7575;SDS011;3829;50.798;4.358;2023-08-12T12:46:09;5.93;;;2.10;;
7575;SDS011;3829;50.798;4.358;2023-08-12T12:48:34;4.43;;;2.00;;
7575;SDS011;3829;50.798;4.358;2023-08-12T12:51:00;3.33;;;2.10;;
7575;SDS011;3829;50.798;4.358;2023-08-12T12:53:25;4.87;;;1.70;;
7575;SDS011;3829;50.798;4.358;2023-08-12T12:55:51;4.37;;;1.90;;
7575;SDS011;3829;50.798;4.358;2023-08-12T12:58:17;5.00;;;1.70;;
7575;SDS011;3829;50.798;4.358;2023-08-12T13:00:42;4.33;;;1.87;;
7575;SDS011;3829;50.798;4.358;2023-08-12T13:03:08;4.67;;;2.13;;
7575;SDS011;3829;50.798;4.358;2023-08-12T13:05:33;6.73;;;1.60;;
7575;SDS011;3829;50.798;4.358;2023-08-12T13:07:59;3.03;;;1.57;;
7575;SDS011;3829;50.798;4.358;2023-08-12T13:10:25;3.20;;;1.53;;
7575;SDS011;3829;50.798;4.358;2023-08-12T13:12:50;6.50;;;2.10;;
7575;SDS011;3829;50.798;4.358;2023-08-12T13:15:16;3.93;;;1.40;;
7575;SDS011;3829;50.798;4.358;2023-08-12T13:17:41;4.13;;;1.40;;
7575;SDS011;3829;50.798;4.358;2023-08-12T13:20:07;3.87;;;1.50;;
7575;SDS011;3829;50.798;4.358;2023-08-12T13:22:34;3.87;;;1.53;;
7575;SDS011;3829;50.798;4.358;2023-08-12T13:25:00;3.70;;;1.30;;
7575;SDS011;3829;50.798;4.358;2023-08-12T13:27:26;4.23;;;1.40;;
7575;SDS011;3829;50.798;4.358;2023-08-12T13:29:51;3.83;;;1.60;;
7575;SDS011;3829;50.798;4.358;2023-08-12T13:32:17;3.20;;;1.30;;
7575;SDS011;3829;50.798;4.358;2023-08-12T13:34:42;9.53;;;1.50;;
7575;SDS011;3829;50.798;4.358;2023-08-12T13:37:11;3.43;;;1.50;;
7575;SDS011;3829;50.798;4.358;2023-08-12T13:39:36;2.50;;;1.33;;
7575;SDS011;3829;50.798;4.358;2023-08-12T13:42:02;4.60;;;1.50;;
7575;SDS011;3829;50.798;4.358;2023-08-12T13:44:28;3.47;;;1.57;;
7575;SDS011;3829;50.798;4.358;2023-08-12T13:46:53;2.83;;;1.40;;
7575;SDS011;3829;50.798;4.358;2023-08-12T13:49:19;3.03;;;1.20;;
7575;SDS011;3829;50.798;4.358;2023-08-12T13:51:44;2.83;;;1.27;;
7575;SDS011;3829;50.798;4.358;2023-08-12T13:54:10;4.63;;;1.30;;
7575;SDS011;3829;50.798;4.358;2023-08-12T13:56:35;3.40;;;1.57;;
7575;SDS011;3829;50.798;4.358;2023-08-12T13:59:01;4.77;;;1.40;;
7575;SDS011;3829;50.798;4.358;2023-08-12T14:01:26;3.87;;;1.30;;
7575;SDS011;3829;50.798;4.358;2023-08-12T14:03:52;4.13;;;1.40;;
7575;SDS011;3829;50.798;4.358;2023-08-12T14:06:18;5.33;;;1.47;;
7575;SDS011;3829;50.798;4.358;2023-08-12T14:08:44;4.40;;;1.60;;
7575;SDS011;3829;50.798;4.358;2023-08-12T14:11:09;2.10;;;1.30;;
7575;SDS011;3829;50.798;4.358;2023-08-12T14:13:35;6.27;;;1.90;;
7575;SDS011;3829;50.798;4.358;2023-08-12T14:16:00;3.43;;;1.30;;
7575;SDS011;3829;50.798;4.358;2023-08-12T14:18:26;6.67;;;1.40;;
7575;SDS011;3829;50.798;4.358;2023-08-12T14:20:51;4.53;;;1.57;;
7575;SDS011;3829;50.798;4.358;2023-08-12T14:23:17;6.43;;;1.20;;
7575;SDS011;3829;50.798;4.358;2023-08-12T14:25:42;6.93;;;1.80;;
7575;SDS011;3829;50.798;4.358;2023-08-12T14:28:08;2.87;;;1.10;;
7575;SDS011;3829;50.798;4.358;2023-08-12T14:30:34;8.00;;;1.50;;
7575;SDS011;3829;50.798;4.358;2023-08-12T14:32:59;3.90;;;1.60;;
7575;SDS011;3829;50.798;4.358;2023-08-12T14:35:25;6.13;;;1.50;;
7575;SDS011;3829;50.798;4.358;2023-08-12T14:37:51;4.63;;;1.47;;
7575;SDS011;3829;50.798;4.358;2023-08-12T14:40:16;2.63;;;1.43;;
7575;SDS011;3829;50.798;4.358;2023-08-12T14:42:42;3.13;;;1.40;;
7575;SDS011;3829;50.798;4.358;2023-08-12T14:45:07;1.43;;;1.20;;
7575;SDS011;3829;50.798;4.358;2023-08-12T14:47:33;4.43;;;1.27;;
7575;SDS011;3829;50.798;4.358;2023-08-12T14:49:59;5.93;;;1.60;;
7575;SDS011;3829;50.798;4.358;2023-08-12T14:52:25;6.13;;;1.43;;
7575;SDS011;3829;50.798;4.358;2023-08-12T14:54:50;3.83;;;1.57;;
7575;SDS011;3829;50.798;4.358;2023-08-12T14:57:16;5.70;;;1.50;;
7575;SDS011;3829;50.798;4.358;2023-08-12T14:59:41;2.43;;;1.30;;
7575;SDS011;3829;50.798;4.358;2023-08-12T15:02:07;2.53;;;1.53;;
7575;SDS011;3829;50.798;4.358;2023-08-12T15:04:33;4.90;;;1.40;;
7575;SDS011;3829;50.798;4.358;2023-08-12T15:06:59;3.57;;;1.37;;
7575;SDS011;3829;50.798;4.358;2023-08-12T15:09:24;4.37;;;1.30;;
7575;SDS011;3829;50.798;4.358;2023-08-12T15:11:50;5.10;;;1.60;;